sensor_id;sensor_type;location;lat;lon;timestamp;pressure;altitude;pressure_sealevel;temperature;humidity
38400;BME280;24180;42.676;23.320;2023-05-28T00:02:09;94602.16;;;15.19;100.00
38400;BME280;24180;42.676;23.320;2023-05-28T00:04:34;94622.72;;;15.37;100.00
38400;BME280;24180;42.676;23.320;2023-05-28T00:07:00;94594.97;;;15.21;100.00
38400;BME280;24180;42.676;23.320;2023-05-28T00:09:26;94632.13;;;15.23;100.00
38400;BME280;24180;42.676;23.320;2023-05-28T00:11:51;94603.66;;;14.91;100.00
38400;BME280;24180;42.676;23.320;2023-05-28T00:14:17;94635.00;;;15.06;100.00
38400;BME280;24180;42.676;23.320;2023-05-28T00:16:42;94632.66;;;14.96;100.00
38400;BME280;24180;42.676;23.320;2023-05-28T00:19:10;94613.34;;;14.82;100.00
38400;BME280;24180;42.676;23.320;2023-05-28T00:21:35;94619.63;;;14.96;100.00
38400;BME280;24180;42.676;23.320;2023-05-28T00:24:02;94626.38;;;15.05;100.00
38400;BME280;24180;42.676;23.320;2023-05-28T00:26:28;94614.00;;;15.07;100.00
38400;BME280;24180;42.676;23.320;2023-05-28T00:28:53;94627.19;;;15.06;100.00
38400;BME280;24180;42.676;23.320;2023-05-28T00:31:19;94625.00;;;14.94;100.00
38400;BME280;24180;42.676;23.320;2023-05-28T00:33:44;94612.47;;;14.90;100.00
38400;BME280;24180;42.676;23.320;2023-05-28T00:36:12;94615.59;;;14.85;100.00
38400;BME280;24180;42.676;23.320;2023-05-28T00:38:37;94581.38;;;14.58;100.00
38400;BME280;24180;42.676;23.320;2023-05-28T00:41:03;94606.22;;;14.76;100.00
38400;BME280;24180;42.676;23.320;2023-05-28T00:43:28;94587.22;;;14.68;100.00
38400;BME280;24180;42.676;23.320;2023-05-28T00:45:57;94600.66;;;14.79;100.00
38400;BME280;24180;42.676;23.320;2023-05-28T00:48:23;94569.34;;;14.57;100.00
38400;BME280;24180;42.676;23.320;2023-05-28T00:50:49;94572.53;;;14.67;100.00
38400;BME280;24180;42.676;23.320;2023-05-28T00:53:15;94599.69;;;14.80;100.00
38400;BME280;24180;42.676;23.320;2023-05-28T00:55:40;94576.19;;;14.58;100.00
38400;BME280;24180;42.676;23.320;2023-05-28T00:58:06;94598.91;;;14.72;100.00
38400;BME280;24180;42.676;23.320;2023-05-28T01:00:36;94571.91;;;14.65;100.00
38400;BME280;24180;42.676;23.320;2023-05-28T01:03:03;94597.28;;;14.71;100.00
38400;BME280;24180;42.676;23.320;2023-05-28T01:05:29;94568.91;;;14.45;100.00
38400;BME280;24180;42.676;23.320;2023-05-28T01:07:58;94594.94;;;14.53;100.00
38400;BME280;24180;42.676;23.320;2023-05-28T01:10:26;94582.25;;;14.50;100.00
38400;BME280;24180;42.676;23.320;2023-05-28T01:12:52;94566.78;;;14.48;100.00
38400;BME280;24180;42.676;23.320;2023-05-28T01:15:19;94584.66;;;14.60;100.00
38400;BME280;24180;42.676;23.320;2023-05-28T01:17:44;94579.56;;;14.66;100.00
38400;BME280;24180;42.676;23.320;2023-05-28T01:20:11;94574.69;;;14.63;100.00
38400;BME280;24180;42.676;23.320;2023-05-28T01:22:40;94575.03;;;14.60;100.00
38400;BME280;24180;42.676;23.320;2023-05-28T01:25:12;94555.78;;;14.38;100.00
38400;BME280;24180;42.676;23.320;2023-05-28T01:27:41;94584.22;;;14.48;100.00
38400;BME280;24180;42.676;23.320;2023-05-28T01:30:08;94577.78;;;14.36;100.00
38400;BME280;24180;42.676;23.320;2023-05-28T01:32:40;94551.16;;;14.10;100.00
38400;BME280;24180;42.676;23.320;2023-05-28T01:35:07;94576.81;;;14.21;100.00
38400;BME280;24180;42.676;23.320;2023-05-28T01:37:36;94581.47;;;14.33;100.00
38400;BME280;24180;42.676;23.320;2023-05-28T01:40:02;94574.94;;;14.45;100.00
38400;BME280;24180;42.676;23.320;2023-05-28T01:42:33;94542.31;;;14.27;100.00
38400;BME280;24180;42.676;23.320;2023-05-28T01:44:59;94577.03;;;14.50;100.00
38400;BME280;24180;42.676;23.320;2023-05-28T01:47:26;94585.50;;;14.52;100.00
38400;BME280;24180;42.676;23.320;2023-05-28T01:49:52;94574.38;;;14.58;100.00
38400;BME280;24180;42.676;23.320;2023-05-28T01:52:18;94572.13;;;14.55;100.00
38400;BME280;24180;42.676;23.320;2023-05-28T01:54:43;94538.34;;;14.39;100.00
38400;BME280;24180;42.676;23.320;2023-05-28T01:57:09;94570.16;;;14.57;100.00
38400;BME280;24180;42.676;23.320;2023-05-28T01:59:35;94562.69;;;14.54;100.00
38400;BME280;24180;42.676;23.320;2023-05-28T02:02:01;94534.78;;;14.40;100.00
38400;BME280;24180;42.676;23.320;2023-05-28T02:04:26;94536.78;;;14.52;100.00
38400;BME280;24180;42.676;23.320;2023-05-28T02:06:52;94545.63;;;14.51;100.00
38400;BME280;24180;42.676;23.320;2023-05-28T02:09:17;94540.72;;;14.48;100.00
38400;BME280;24180;42.676;23.320;2023-05-28T02:11:42;94578.69;;;14.74;100.00
38400;BME280;24180;42.676;23.320;2023-05-28T02:14:08;94570.91;;;14.66;100.00
38400;BME280;24180;42.676;23.320;2023-05-28T02:16:34;94576.13;;;14.66;100.00
38400;BME280;24180;42.676;23.320;2023-05-28T02:19:00;94572.09;;;14.63;100.00
38400;BME280;24180;42.676;23.320;2023-05-28T02:21:26;94571.09;;;14.64;100.00
38400;BME280;24180;42.676;23.320;2023-05-28T02:23:52;94550.88;;;14.43;100.00
38400;BME280;24180;42.676;23.320;2023-05-28T02:26:17;94552.56;;;14.59;100.00
38400;BME280;24180;42.676;23.320;2023-05-28T02:28:43;94576.06;;;14.74;100.00
38400;BME280;24180;42.676;23.320;2023-05-28T02:31:10;94559.22;;;14.62;100.00
38400;BME280;24180;42.676;23.320;2023-05-28T02:33:37;94548.50;;;14.57;100.00
38400;BME280;24180;42.676;23.320;2023-05-28T02:36:03;94582.47;;;14.71;100.00
38400;BME280;24180;42.676;23.320;2023-05-28T02:38:29;94589.94;;;14.74;100.00
38400;BME280;24180;42.676;23.320;2023-05-28T02:40:55;94556.81;;;14.60;100.00
38400;BME280;24180;42.676;23.320;2023-05-28T02:43:20;94577.81;;;14.81;100.00
38400;BME280;24180;42.676;23.320;2023-05-28T02:45:45;94536.47;;;14.56;100.00
38400;BME280;24180;42.676;23.320;2023-05-28T02:48:11;94580.47;;;14.73;100.00
38400;BME280;24180;42.676;23.320;2023-05-28T02:50:36;94583.38;;;14.78;100.00
38400;BME280;24180;42.676;23.320;2023-05-28T02:53:02;94574.75;;;14.78;100.00
38400;BME280;24180;42.676;23.320;2023-05-28T02:55:28;94562.63;;;14.62;100.00
38400;BME280;24180;42.676;23.320;2023-05-28T02:57:53;94586.66;;;14.80;100.00
38400;BME280;24180;42.676;23.320;2023-05-28T03:00:19;94595.03;;;14.90;100.00
38400;BME280;24180;42.676;23.320;2023-05-28T03:02:45;94579.41;;;14.90;100.00
38400;BME280;24180;42.676;23.320;2023-05-28T03:05:10;94545.66;;;14.66;100.00
38400;BME280;24180;42.676;23.320;2023-05-28T03:07:35;94590.22;;;15.02;100.00
38400;BME280;24180;42.676;23.320;2023-05-28T03:10:01;94576.72;;;14.98;100.00
38400;BME280;24180;42.676;23.320;2023-05-28T03:12:26;94575.75;;;14.99;100.00
38400;BME280;24180;42.676;23.320;2023-05-28T03:14:52;94548.53;;;14.79;100.00
38400;BME280;24180;42.676;23.320;2023-05-28T03:17:17;94584.91;;;14.95;100.00
38400;BME280;24180;42.676;23.320;2023-05-28T03:19:43;94573.19;;;14.91;100.00
38400;BME280;24180;42.676;23.320;2023-05-28T03:22:08;94575.28;;;14.96;100.00
38400;BME280;24180;42.676;23.320;2023-05-28T03:24:33;94557.78;;;14.82;100.00
38400;BME280;24180;42.676;23.320;2023-05-28T03:27:01;94588.25;;;15.04;100.00
38400;BME280;24180;42.676;23.320;2023-05-28T03:29:27;94592.25;;;15.15;100.00
38400;BME280;24180;42.676;23.320;2023-05-28T03:31:52;94582.78;;;15.14;100.00
38400;BME280;24180;42.676;23.320;2023-05-28T03:34:18;94597.41;;;15.23;100.00
38400;BME280;24180;42.676;23.320;2023-05-28T03:36:43;94588.81;;;15.14;100.00
38400;BME280;24180;42.676;23.320;2023-05-28T03:39:09;94590.56;;;15.22;100.00
38400;BME280;24180;42.676;23.320;2023-05-28T03:41:36;94566.47;;;15.20;100.00
38400;BME280;24180;42.676;23.320;2023-05-28T03:44:03;94569.59;;;15.15;100.00
38400;BME280;24180;42.676;23.320;2023-05-28T03:46:28;94570.28;;;15.09;100.00
38400;BME280;24180;42.676;23.320;2023-05-28T03:48:54;94565.88;;;15.10;100.00
38400;BME280;24180;42.676;23.320;2023-05-28T03:51:19;94605.31;;;15.29;100.00
38400;BME280;24180;42.676;23.320;2023-05-28T03:53:45;94573.91;;;15.08;100.00
38400;BME280;24180;42.676;23.320;2023-05-28T03:56:10;94598.97;;;15.32;100.00
38400;BME280;24180;42.676;23.320;2023-05-28T03:58:36;94595.09;;;15.28;100.00
38400;BME280;24180;42.676;23.320;2023-05-28T04:01:01;94597.84;;;15.26;100.00
38400;BME280;24180;42.676;23.320;2023-05-28T04:03:26;94598.91;;;15.40;100.00
38400;BME280;24180;42.676;23.320;2023-05-28T04:05:52;94558.81;;;15.18;100.00
38400;BME280;24180;42.676;23.320;2023-05-28T04:08:17;94600.16;;;15.44;100.00
38400;BME280;24180;42.676;23.320;2023-05-28T04:10:43;94599.88;;;15.39;100.00
38400;BME280;24180;42.676;23.320;2023-05-28T04:13:08;94570.66;;;15.21;100.00
38400;BME280;24180;42.676;23.320;2023-05-28T04:15:34;94605.84;;;15.48;100.00
38400;BME280;24180;42.676;23.320;2023-05-28T04:17:59;94603.41;;;15.46;100.00
38400;BME280;24180;42.676;23.320;2023-05-28T04:20:25;94608.63;;;15.46;100.00
38400;BME280;24180;42.676;23.320;2023-05-28T04:22:50;94577.56;;;15.36;100.00
38400;BME280;24180;42.676;23.320;2023-05-28T04:25:17;94582.31;;;15.33;100.00
38400;BME280;24180;42.676;23.320;2023-05-28T04:27:44;94605.50;;;15.51;100.00
38400;BME280;24180;42.676;23.320;2023-05-28T04:30:11;94610.22;;;15.70;100.00
38400;BME280;24180;42.676;23.320;2023-05-28T04:32:36;94605.28;;;15.60;100.00
38400;BME280;24180;42.676;23.320;2023-05-28T04:35:05;94584.72;;;15.57;100.00
38400;BME280;24180;42.676;23.320;2023-05-28T04:37:31;94609.41;;;15.69;100.00
38400;BME280;24180;42.676;23.320;2023-05-28T04:39:58;94577.00;;;15.64;100.00
38400;BME280;24180;42.676;23.320;2023-05-28T04:42:23;94613.47;;;15.86;100.00
38400;BME280;24180;42.676;23.320;2023-05-28T04:44:49;94589.44;;;15.76;100.00
38400;BME280;24180;42.676;23.320;2023-05-28T04:47:18;94609.34;;;15.92;100.00
38400;BME280;24180;42.676;23.320;2023-05-28T04:49:44;94607.34;;;15.94;100.00
38400;BME280;24180;42.676;23.320;2023-05-28T04:52:10;94598.25;;;15.75;100.00
38400;BME280;24180;42.676;23.320;2023-05-28T04:54:35;94626.25;;;15.81;100.00
38400;BME280;24180;42.676;23.320;2023-05-28T04:57:01;94602.66;;;15.60;100.00
38400;BME280;24180;42.676;23.320;2023-05-28T04:59:27;94592.09;;;15.54;100.00
38400;BME280;24180;42.676;23.320;2023-05-28T05:01:53;94580.22;;;15.51;100.00
38400;BME280;24180;42.676;23.320;2023-05-28T05:04:18;94617.59;;;15.81;100.00
38400;BME280;24180;42.676;23.320;2023-05-28T05:06:44;94618.34;;;15.89;100.00
38400;BME280;24180;42.676;23.320;2023-05-28T05:09:09;94610.94;;;15.93;100.00
38400;BME280;24180;42.676;23.320;2023-05-28T05:11:35;94613.13;;;16.04;100.00
38400;BME280;24180;42.676;23.320;2023-05-28T05:14:00;94593.69;;;15.92;100.00
38400;BME280;24180;42.676;23.320;2023-05-28T05:16:26;94592.06;;;15.91;100.00
38400;BME280;24180;42.676;23.320;2023-05-28T05:18:52;94616.81;;;16.10;100.00
38400;BME280;24180;42.676;23.320;2023-05-28T05:21:17;94589.81;;;16.03;100.00
38400;BME280;24180;42.676;23.320;2023-05-28T05:23:43;94584.13;;;16.14;100.00
38400;BME280;24180;42.676;23.320;2023-05-28T05:26:09;94577.53;;;16.18;100.00
38400;BME280;24180;42.676;23.320;2023-05-28T05:28:43;94585.81;;;16.36;100.00
38400;BME280;24180;42.676;23.320;2023-05-28T05:31:08;94612.38;;;16.54;100.00
38400;BME280;24180;42.676;23.320;2023-05-28T05:33:37;94610.00;;;16.74;100.00
38400;BME280;24180;42.676;23.320;2023-05-28T05:36:03;94608.63;;;16.93;100.00
38400;BME280;24180;42.676;23.320;2023-05-28T05:38:30;94589.94;;;16.96;100.00
38400;BME280;24180;42.676;23.320;2023-05-28T05:40:55;94595.59;;;17.20;100.00
38400;BME280;24180;42.676;23.320;2023-05-28T05:43:21;94623.13;;;17.59;100.00
38400;BME280;24180;42.676;23.320;2023-05-28T05:45:46;94614.81;;;17.55;100.00
38400;BME280;24180;42.676;23.320;2023-05-28T05:48:12;94630.72;;;17.75;100.00
38400;BME280;24180;42.676;23.320;2023-05-28T05:50:50;94621.97;;;17.89;100.00
38400;BME280;24180;42.676;23.320;2023-05-28T05:53:17;94618.53;;;17.89;100.00
38400;BME280;24180;42.676;23.320;2023-05-28T05:55:43;94604.44;;;17.62;100.00
38400;BME280;24180;42.676;23.320;2023-05-28T05:58:08;94616.94;;;17.66;100.00
38400;BME280;24180;42.676;23.320;2023-05-28T06:00:34;94614.19;;;17.53;100.00
38400;BME280;24180;42.676;23.320;2023-05-28T06:02:59;94640.53;;;17.66;100.00
38400;BME280;24180;42.676;23.320;2023-05-28T06:05:26;94637.03;;;17.59;100.00
38400;BME280;24180;42.676;23.320;2023-05-28T06:07:51;94606.03;;;17.42;100.00
38400;BME280;24180;42.676;23.320;2023-05-28T06:10:17;94602.00;;;17.39;100.00
38400;BME280;24180;42.676;23.320;2023-05-28T06:12:43;94626.19;;;17.62;100.00
38400;BME280;24180;42.676;23.320;2023-05-28T06:15:08;94634.28;;;17.67;100.00
38400;BME280;24180;42.676;23.320;2023-05-28T06:17:34;94610.88;;;17.59;100.00
38400;BME280;24180;42.676;23.320;2023-05-28T06:19:59;94617.63;;;17.75;100.00
38400;BME280;24180;42.676;23.320;2023-05-28T06:22:26;94612.25;;;17.83;100.00
38400;BME280;24180;42.676;23.320;2023-05-28T06:24:51;94625.16;;;18.12;100.00
38400;BME280;24180;42.676;23.320;2023-05-28T06:27:18;94643.19;;;18.29;100.00
38400;BME280;24180;42.676;23.320;2023-05-28T06:29:44;94624.44;;;17.97;100.00
38400;BME280;24180;42.676;23.320;2023-05-28T06:32:09;94638.69;;;17.88;100.00
38400;BME280;24180;42.676;23.320;2023-05-28T06:34:35;94631.97;;;17.58;100.00
38400;BME280;24180;42.676;23.320;2023-05-28T06:37:00;94623.50;;;17.35;100.00
38400;BME280;24180;42.676;23.320;2023-05-28T06:39:26;94633.59;;;17.38;100.00
38400;BME280;24180;42.676;23.320;2023-05-28T06:41:52;94628.47;;;17.29;100.00
38400;BME280;24180;42.676;23.320;2023-05-28T06:44:17;94642.03;;;17.33;100.00
38400;BME280;24180;42.676;23.320;2023-05-28T06:46:43;94614.06;;;17.12;100.00
38400;BME280;24180;42.676;23.320;2023-05-28T06:49:08;94614.09;;;17.19;100.00
38400;BME280;24180;42.676;23.320;2023-05-28T06:51:34;94619.38;;;17.25;100.00
38400;BME280;24180;42.676;23.320;2023-05-28T06:54:01;94609.31;;;17.22;100.00
38400;BME280;24180;42.676;23.320;2023-05-28T06:56:26;94615.84;;;17.33;100.00
38400;BME280;24180;42.676;23.320;2023-05-28T06:58:51;94628.56;;;17.36;100.00
38400;BME280;24180;42.676;23.320;2023-05-28T07:01:17;94621.09;;;17.33;100.00
38400;BME280;24180;42.676;23.320;2023-05-28T07:03:42;94648.88;;;17.55;100.00
38400;BME280;24180;42.676;23.320;2023-05-28T07:06:08;94641.66;;;17.57;100.00
38400;BME280;24180;42.676;23.320;2023-05-28T07:08:34;94641.97;;;17.69;100.00
38400;BME280;24180;42.676;23.320;2023-05-28T07:10:59;94640.44;;;17.81;100.00
38400;BME280;24180;42.676;23.320;2023-05-28T07:13:25;94630.53;;;17.76;100.00
38400;BME280;24180;42.676;23.320;2023-05-28T07:15:50;94624.56;;;17.61;100.00
38400;BME280;24180;42.676;23.320;2023-05-28T07:18:16;94647.78;;;17.92;100.00
38400;BME280;24180;42.676;23.320;2023-05-28T07:20:41;94653.81;;;18.20;100.00
38400;BME280;24180;42.676;23.320;2023-05-28T07:23:07;94614.94;;;18.24;100.00
38400;BME280;24180;42.676;23.320;2023-05-28T07:25:32;94622.41;;;18.34;100.00
38400;BME280;24180;42.676;23.320;2023-05-28T07:27:57;94613.63;;;18.48;100.00
38400;BME280;24180;42.676;23.320;2023-05-28T07:30:23;94655.00;;;18.93;100.00
38400;BME280;24180;42.676;23.320;2023-05-28T07:32:48;94624.13;;;18.95;100.00
38400;BME280;24180;42.676;23.320;2023-05-28T07:35:14;94652.28;;;19.34;100.00
38400;BME280;24180;42.676;23.320;2023-05-28T07:37:39;94646.00;;;19.35;100.00
38400;BME280;24180;42.676;23.320;2023-05-28T07:40:05;94651.94;;;19.57;100.00
38400;BME280;24180;42.676;23.320;2023-05-28T07:42:31;94623.66;;;19.72;100.00
38400;BME280;24180;42.676;23.320;2023-05-28T07:44:57;94622.63;;;19.86;100.00
38400;BME280;24180;42.676;23.320;2023-05-28T07:47:22;94613.28;;;20.10;100.00
38400;BME280;24180;42.676;23.320;2023-05-28T07:49:47;94656.09;;;20.63;100.00
38400;BME280;24180;42.676;23.320;2023-05-28T07:52:13;94646.03;;;20.27;100.00
38400;BME280;24180;42.676;23.320;2023-05-28T07:54:38;94629.13;;;19.64;100.00
38400;BME280;24180;42.676;23.320;2023-05-28T07:57:06;94607.41;;;19.16;100.00
38400;BME280;24180;42.676;23.320;2023-05-28T07:59:32;94606.38;;;18.97;100.00
38400;BME280;24180;42.676;23.320;2023-05-28T08:01:58;94643.72;;;18.93;100.00
38400;BME280;24180;42.676;23.320;2023-05-28T08:04:23;94636.09;;;18.57;100.00
38400;BME280;24180;42.676;23.320;2023-05-28T08:06:49;94632.56;;;18.43;100.00
38400;BME280;24180;42.676;23.320;2023-05-28T08:09:14;94640.44;;;18.50;100.00
38400;BME280;24180;42.676;23.320;2023-05-28T08:11:43;94630.22;;;19.15;100.00
38400;BME280;24180;42.676;23.320;2023-05-28T08:14:08;94580.38;;;19.29;100.00
38400;BME280;24180;42.676;23.320;2023-05-28T08:16:34;94608.91;;;19.71;100.00
38400;BME280;24180;42.676;23.320;2023-05-28T08:18:59;94620.63;;;19.69;100.00
38400;BME280;24180;42.676;23.320;2023-05-28T08:21:26;94650.72;;;19.79;100.00
38400;BME280;24180;42.676;23.320;2023-05-28T08:23:53;94615.72;;;19.33;100.00
38400;BME280;24180;42.676;23.320;2023-05-28T08:26:19;94624.38;;;19.27;100.00
38400;BME280;24180;42.676;23.320;2023-05-28T08:28:45;94627.09;;;19.53;100.00
38400;BME280;24180;42.676;23.320;2023-05-28T08:31:10;94653.94;;;20.21;100.00
38400;BME280;24180;42.676;23.320;2023-05-28T08:33:36;94653.75;;;20.35;100.00
38400;BME280;24180;42.676;23.320;2023-05-28T08:36:01;94622.38;;;20.40;100.00
38400;BME280;24180;42.676;23.320;2023-05-28T08:38:28;94661.44;;;20.94;100.00
38400;BME280;24180;42.676;23.320;2023-05-28T08:40:55;94649.09;;;21.39;100.00
38400;BME280;24180;42.676;23.320;2023-05-28T08:43:21;94642.03;;;21.33;100.00
38400;BME280;24180;42.676;23.320;2023-05-28T08:45:47;94621.94;;;20.94;100.00
38400;BME280;24180;42.676;23.320;2023-05-28T08:48:14;94650.00;;;20.69;100.00
38400;BME280;24180;42.676;23.320;2023-05-28T08:50:42;94644.28;;;20.79;100.00
38400;BME280;24180;42.676;23.320;2023-05-28T08:53:15;94654.56;;;20.93;100.00
38400;BME280;24180;42.676;23.320;2023-05-28T08:55:40;94648.75;;;20.78;100.00
38400;BME280;24180;42.676;23.320;2023-05-28T08:58:06;94629.69;;;20.89;100.00
38400;BME280;24180;42.676;23.320;2023-05-28T09:00:32;94623.09;;;20.74;100.00
38400;BME280;24180;42.676;23.320;2023-05-28T09:02:58;94638.50;;;21.08;100.00
38400;BME280;24180;42.676;23.320;2023-05-28T09:05:23;94622.13;;;21.06;100.00
38400;BME280;24180;42.676;23.320;2023-05-28T09:07:49;94632.47;;;20.94;100.00
38400;BME280;24180;42.676;23.320;2023-05-28T09:10:15;94617.59;;;20.82;100.00
38400;BME280;24180;42.676;23.320;2023-05-28T09:12:56;94635.81;;;20.77;100.00
38400;BME280;24180;42.676;23.320;2023-05-28T09:15:22;94612.41;;;20.62;100.00
38400;BME280;24180;42.676;23.320;2023-05-28T09:17:48;94612.38;;;20.69;100.00
38400;BME280;24180;42.676;23.320;2023-05-28T09:20:13;94618.38;;;20.82;100.00
38400;BME280;24180;42.676;23.320;2023-05-28T09:22:39;94634.84;;;21.16;100.00
38400;BME280;24180;42.676;23.320;2023-05-28T09:25:06;94634.22;;;20.63;100.00
38400;BME280;24180;42.676;23.320;2023-05-28T09:27:32;94621.63;;;19.87;100.00
38400;BME280;24180;42.676;23.320;2023-05-28T09:30:07;94623.03;;;19.96;100.00
38400;BME280;24180;42.676;23.320;2023-05-28T09:32:34;94624.94;;;20.60;100.00
38400;BME280;24180;42.676;23.320;2023-05-28T09:35:00;94628.66;;;20.90;100.00
38400;BME280;24180;42.676;23.320;2023-05-28T09:37:29;94637.16;;;21.37;100.00
38400;BME280;24180;42.676;23.320;2023-05-28T09:40:05;94634.47;;;21.43;100.00
38400;BME280;24180;42.676;23.320;2023-05-28T09:42:38;94632.72;;;21.31;100.00
38400;BME280;24180;42.676;23.320;2023-05-28T09:45:05;94617.00;;;21.11;100.00
38400;BME280;24180;42.676;23.320;2023-05-28T09:47:31;94621.38;;;20.92;100.00
38400;BME280;24180;42.676;23.320;2023-05-28T09:49:56;94645.97;;;20.67;100.00
38400;BME280;24180;42.676;23.320;2023-05-28T09:52:22;94639.59;;;20.36;100.00
38400;BME280;24180;42.676;23.320;2023-05-28T09:57:27;94649.66;;;20.52;100.00
38400;BME280;24180;42.676;23.320;2023-05-28T09:59:55;94638.78;;;20.36;100.00
38400;BME280;24180;42.676;23.320;2023-05-28T10:04:47;94654.50;;;20.55;100.00
38400;BME280;24180;42.676;23.320;2023-05-28T10:07:18;94653.22;;;20.78;100.00
38400;BME280;24180;42.676;23.320;2023-05-28T10:09:45;94621.97;;;21.64;100.00
38400;BME280;24180;42.676;23.320;2023-05-28T10:12:23;94625.59;;;22.37;100.00
38400;BME280;24180;42.676;23.320;2023-05-28T10:14:49;94660.53;;;22.14;100.00
38400;BME280;24180;42.676;23.320;2023-05-28T10:17:16;94623.28;;;21.48;100.00
38400;BME280;24180;42.676;23.320;2023-05-28T10:19:44;94653.13;;;21.73;100.00
38400;BME280;24180;42.676;23.320;2023-05-28T10:22:12;94626.63;;;21.37;100.00
38400;BME280;24180;42.676;23.320;2023-05-28T10:24:37;94637.47;;;21.47;100.00
38400;BME280;24180;42.676;23.320;2023-05-28T10:27:07;94641.66;;;21.30;100.00
38400;BME280;24180;42.676;23.320;2023-05-28T10:29:43;94640.66;;;21.56;100.00
38400;BME280;24180;42.676;23.320;2023-05-28T10:32:09;94604.59;;;21.25;100.00
38400;BME280;24180;42.676;23.320;2023-05-28T10:34:36;94626.91;;;21.22;100.00
38400;BME280;24180;42.676;23.320;2023-05-28T10:37:03;94641.41;;;20.93;100.00
38400;BME280;24180;42.676;23.320;2023-05-28T10:39:42;94637.91;;;21.06;100.00
38400;BME280;24180;42.676;23.320;2023-05-28T10:42:13;94616.97;;;21.24;100.00
38400;BME280;24180;42.676;23.320;2023-05-28T10:44:52;94598.72;;;21.29;100.00
38400;BME280;24180;42.676;23.320;2023-05-28T10:52:25;94621.91;;;21.14;100.00
38400;BME280;24180;42.676;23.320;2023-05-28T10:54:52;94629.50;;;21.60;100.00
38400;BME280;24180;42.676;23.320;2023-05-28T10:57:19;94630.19;;;21.49;100.00
38400;BME280;24180;42.676;23.320;2023-05-28T10:59:59;94620.69;;;22.22;100.00
38400;BME280;24180;42.676;23.320;2023-05-28T11:02:33;94598.13;;;23.82;100.00
38400;BME280;24180;42.676;23.320;2023-05-28T11:05:00;94584.25;;;26.08;99.07
38400;BME280;24180;42.676;23.320;2023-05-28T11:07:34;94610.91;;;25.63;99.97
38400;BME280;24180;42.676;23.320;2023-05-28T11:10:05;94609.13;;;26.02;97.86
38400;BME280;24180;42.676;23.320;2023-05-28T11:12:32;94617.34;;;25.39;98.68
38400;BME280;24180;42.676;23.320;2023-05-28T11:14:59;94602.03;;;25.29;100.00
38400;BME280;24180;42.676;23.320;2023-05-28T11:17:25;94602.69;;;25.08;100.00
38400;BME280;24180;42.676;23.320;2023-05-28T11:19:51;94606.94;;;28.26;88.10
38400;BME280;24180;42.676;23.320;2023-05-28T11:22:18;94587.28;;;27.96;83.98
38400;BME280;24180;42.676;23.320;2023-05-28T11:24:57;94610.50;;;26.04;92.54
38400;BME280;24180;42.676;23.320;2023-05-28T11:27:30;94596.91;;;24.83;100.00
38400;BME280;24180;42.676;23.320;2023-05-28T11:29:57;94605.59;;;24.32;100.00
38400;BME280;24180;42.676;23.320;2023-05-28T11:32:23;94602.38;;;24.06;100.00
38400;BME280;24180;42.676;23.320;2023-05-28T11:34:51;94583.81;;;24.64;100.00
38400;BME280;24180;42.676;23.320;2023-05-28T11:37:22;94580.91;;;24.89;100.00
38400;BME280;24180;42.676;23.320;2023-05-28T11:39:51;94595.22;;;25.78;98.00
38400;BME280;24180;42.676;23.320;2023-05-28T11:42:20;94577.56;;;28.58;79.13
38400;BME280;24180;42.676;23.320;2023-05-28T11:44:46;94579.16;;;32.44;57.74
38400;BME280;24180;42.676;23.320;2023-05-28T11:47:12;94559.47;;;30.34;58.50
38400;BME280;24180;42.676;23.320;2023-05-28T11:49:38;94563.41;;;28.53;69.12
38400;BME280;24180;42.676;23.320;2023-05-28T11:52:04;94596.06;;;27.96;77.09
38400;BME280;24180;42.676;23.320;2023-05-28T11:54:29;94596.38;;;28.36;71.97
38400;BME280;24180;42.676;23.320;2023-05-28T11:56:55;94601.03;;;26.85;79.65
38400;BME280;24180;42.676;23.320;2023-05-28T11:59:23;94575.56;;;27.38;79.21
38400;BME280;24180;42.676;23.320;2023-05-28T12:01:52;94578.91;;;26.58;83.04
38400;BME280;24180;42.676;23.320;2023-05-28T12:04:22;94573.69;;;25.75;87.67
38400;BME280;24180;42.676;23.320;2023-05-28T12:06:55;94565.06;;;25.06;95.07
38400;BME280;24180;42.676;23.320;2023-05-28T12:09:20;94575.56;;;25.46;95.68
38400;BME280;24180;42.676;23.320;2023-05-28T12:12:10;94582.41;;;25.13;97.12
38400;BME280;24180;42.676;23.320;2023-05-28T12:14:36;94573.53;;;24.28;100.00
38400;BME280;24180;42.676;23.320;2023-05-28T12:17:09;94580.44;;;23.41;100.00
38400;BME280;24180;42.676;23.320;2023-05-28T12:19:35;94586.97;;;23.27;100.00
38400;BME280;24180;42.676;23.320;2023-05-28T12:22:01;94578.50;;;23.07;100.00
38400;BME280;24180;42.676;23.320;2023-05-28T12:24:28;94587.13;;;22.84;100.00
38400;BME280;24180;42.676;23.320;2023-05-28T12:26:54;94584.19;;;22.56;100.00
38400;BME280;24180;42.676;23.320;2023-05-28T12:29:19;94581.59;;;22.67;100.00
38400;BME280;24180;42.676;23.320;2023-05-28T12:31:44;94581.69;;;22.61;100.00
38400;BME280;24180;42.676;23.320;2023-05-28T12:34:11;94582.88;;;22.65;100.00
38400;BME280;24180;42.676;23.320;2023-05-28T12:36:36;94579.41;;;22.64;100.00
38400;BME280;24180;42.676;23.320;2023-05-28T12:39:01;94585.34;;;22.96;100.00
38400;BME280;24180;42.676;23.320;2023-05-28T12:41:28;94590.25;;;23.52;100.00
38400;BME280;24180;42.676;23.320;2023-05-28T12:43:53;94557.97;;;23.62;100.00
38400;BME280;24180;42.676;23.320;2023-05-28T12:46:19;94530.53;;;23.63;100.00
38400;BME280;24180;42.676;23.320;2023-05-28T12:48:44;94562.84;;;24.75;100.00